Time;durP1;ratioP1;P1;durP2;ratioP2;P2;SDS_P1;SDS_P2;PMS_P1;PMS_P2;Temp;Humidity;BMP_temperature;BMP_pressure;BME280_temperature;BME280_humidity;BME280_pressure;Samples;Min_cycle;Max_cycle;Signal;HPM_P1;HPM_P2
2022/04/14 00:00:29;;;;;;;;;;;;;;;;;;5124718;27;1144;-75
2022/04/14 00:02:55;;;;;;;;;;;;;;;;;;5126261;27;1251;-75
2022/04/14 00:05:21;;;;;;;;;;;;;;;;;;5127060;27;1901;-76
2022/04/14 00:07:46;;;;;;;;;;;;;;;;;;5121994;27;1382;-76
2022/04/14 00:10:12;;;;;;;;;;;;;;;;;;5125228;27;1151;-76
2022/04/14 00:12:37;;;;;;;;;;;;;;;;;;5117405;27;1285;-76
2022/04/14 00:15:04;;;;;;;;;;;;;;;;;;5127582;27;1124;-76
2022/04/14 00:17:32;;;;;;;;;;;;;;;;;;5122820;27;1244;-75
2022/04/14 00:19:57;;;;;;;;;;;;;;;;;;5108787;27;1302;-75
2022/04/14 00:22:22;;;;;;;;;;;;;;;;;;5126671;27;1123;-76
2022/04/14 00:24:48;;;;;;;;;;;;;;;;;;5124891;27;1962;-75
2022/04/14 00:27:17;;;;;;;;;;;;;;;;;;5122290;27;1183;-77
2022/04/14 00:29:43;;;;;;;;;;;;;;;;;;5123202;27;1116;-75
2022/04/14 00:32:08;;;;;;;;;;;;;;;;;;5110320;28;1419;-75
2022/04/14 00:34:33;;;;;;;;;;;;;;;;;;5104609;28;1207;-75
2022/04/14 00:37:00;;;;;;;;;;;;;;;;;;5104623;28;1697;-75
2022/04/14 00:39:27;;;;;;;;;;;;;;;;;;5105703;28;1156;-75
2022/04/14 00:41:52;;;;;;;;;;;;;;;;;;5101806;28;1187;-76
2022/04/14 00:44:17;;;;;;;;;;;;;;;;;;5103044;28;1164;-76
2022/04/14 00:46:43;;;;;;;;;;;;;;;;;;5085467;28;1975;-75
2022/04/14 00:49:08;;;;;;;;;;;;;;;;;;5105168;28;1143;-75
2022/04/14 00:51:34;;;;;;;;;;;;;;;;;;5117399;28;1134;-75
2022/04/14 00:53:59;;;;;;;;;;;;;;;;;;5109236;28;1300;-75
2022/04/14 00:56:24;;;;;;;;;;;;;;;;;;5121979;28;1301;-75
2022/04/14 00:58:50;;;;;;;;;;;;;;;;;;5122970;27;1162;-75
2022/04/14 01:01:15;;;;;;;;;;;;;;;;;;5123533;28;1175;-74
2022/04/14 01:03:42;;;;;;;;;;;;;;;;;;5124322;28;1075;-75
2022/04/14 01:06:08;;;;;;;;;;;;;;;;;;5127501;27;1952;-75
2022/04/14 01:08:34;;;;;;;;;;;;;;;;;;5100581;28;1248;-75
2022/04/14 01:10:59;;;;;;;;;;;;;;;;;;5100380;28;1281;-75
2022/04/14 01:13:25;;;;;;;;;;;;;;;;;;5100061;28;1292;-76
2022/04/14 01:15:55;;;;;;;;;;;;;;;;;;5111094;28;1147;-74
2022/04/14 01:18:20;;;;;;;;;;;;;;;;;;5125390;28;1390;-74
2022/04/14 01:20:46;;;;;;;;;;;;;;;;;;5112057;28;1313;-74
2022/04/14 01:23:12;;;;;;;;;;;;;;;;;;5104764;28;1205;-75
2022/04/14 01:25:38;;;;;;;;;;;;;;;;;;5104846;28;1886;-75
2022/04/14 01:28:04;;;;;;;;;;;;;;;;;;5106793;28;1202;-75
2022/04/14 01:30:29;;;;;;;;;;;;;;;;;;5108812;28;1296;-75
2022/04/14 01:32:55;;;;;;;;;;;;;;;;;;5105542;28;1156;-75
2022/04/14 01:35:23;;;;;;;;;;;;;;;;;;5117448;27;1257;-75
2022/04/14 01:37:49;;;;;;;;;;;;;;;;;;5127150;27;1272;-75
2022/04/14 01:40:14;;;;;;;;;;;;;;;;;;5129107;27;1131;-75
2022/04/14 01:42:39;;;;;;;;;;;;;;;;;;5122460;27;1275;-75
2022/04/14 01:45:10;;;;;;;;;;;;;;;;;;5128987;27;1913;-76
2022/04/14 01:47:42;;;;;;;;;;;;;;;;;;5091867;28;1455;-76
2022/04/14 01:50:09;;;;;;;;;;;;;;;;;;5108326;28;1209;-76
2022/04/14 01:52:36;;;;;;;;;;;;;;;;;;5107360;28;1378;-76
2022/04/14 01:55:01;;;;;;;;;;;;;;;;;;5107397;28;1398;-74
2022/04/14 01:57:26;;;;;;;;;;;;;;;;;;5099656;28;1178;-75
2022/04/14 01:59:52;;;;;;;;;;;;;;;;;;5089234;28;1461;-75
2022/04/14 02:02:17;;;;;;;;;;;;;;;;;;5105008;28;1199;-75
2022/04/14 02:04:42;;;;;;;;;;;;;;;;;;5088937;28;1274;-74
2022/04/14 02:07:09;;;;;;;;;;;;;;;;;;5104868;28;1889;-75
2022/04/14 02:09:41;;;;;;;;;;;;;;;;;;5106524;27;1217;-76
2022/04/14 02:12:06;;;;;;;;;;;;;;;;;;5102590;28;1144;-76
2022/04/14 02:14:32;;;;;;;;;;;;;;;;;;5103913;28;1179;-75
2022/04/14 02:16:57;;;;;;;;;;;;;;;;;;5104923;28;1077;-75
2022/04/14 02:19:22;;;;;;;;;;;;;;;;;;5089097;28;1289;-75
2022/04/14 02:21:47;;;;;;;;;;;;;;;;;;5103627;28;1218;-75
2022/04/14 02:24:13;;;;;;;;;;;;;;;;;;5106587;28;1186;-75
2022/04/14 02:26:43;;;;;;;;;;;;;;;;;;5082101;28;1960;-75
2022/04/14 02:29:08;;;;;;;;;;;;;;;;;;5113789;27;1146;-75
2022/04/14 02:31:34;;;;;;;;;;;;;;;;;;5087872;28;1168;-75
2022/04/14 02:33:59;;;;;;;;;;;;;;;;;;5087855;28;1323;-75
2022/04/14 02:36:24;;;;;;;;;;;;;;;;;;5106387;27;1298;-75
2022/04/14 02:38:49;;;;;;;;;;;;;;;;;;5124124;27;1155;-75
2022/04/14 02:41:15;;;;;;;;;;;;;;;;;;5100091;28;1111;-75
2022/04/14 02:43:45;;;;;;;;;;;;;;;;;;5101236;28;1214;-75
2022/04/14 02:46:11;;;;;;;;;;;;;;;;;;5091337;28;1918;-74
2022/04/14 02:48:36;;;;;;;;;;;;;;;;;;5120522;27;1207;-75
2022/04/14 02:51:01;;;;;;;;;;;;;;;;;;5126624;27;1215;-75
2022/04/14 02:53:27;;;;;;;;;;;;;;;;;;5124679;27;1402;-75
2022/04/14 02:55:52;;;;;;;;;;;;;;;;;;5101677;27;1327;-75
2022/04/14 02:58:17;;;;;;;;;;;;;;;;;;5122753;27;1240;-75
2022/04/14 03:00:43;;;;;;;;;;;;;;;;;;5106743;27;1205;-76
2022/04/14 03:03:08;;;;;;;;;;;;;;;;;;5125754;27;1211;-75
2022/04/14 03:05:34;;;;;;;;;;;;;;;;;;5108550;27;1960;-75
2022/04/14 03:07:59;;;;;;;;;;;;;;;;;;5123003;27;1406;-75
2022/04/14 03:10:36;;;;;;;;;;;;;;;;;;;;;
2022/04/14 03:13:02;;;;;;;;;;;;;;;;;;5124367;27;1070;-75
2022/04/14 03:15:27;;;;;;;;;;;;;;;;;;5102829;27;1343;-75
2022/04/14 03:17:53;;;;;;;;;;;;;;;;;;5125074;27;1223;-73
2022/04/14 03:20:21;;;;;;;;;;;;;;;;;;5124777;27;1221;-74
2022/04/14 03:22:46;;;;;;;;;;;;;;;;;;5103333;27;1152;-74
2022/04/14 03:25:13;;;;;;;;;;;;;;;;;;5120583;27;1974;-75
2022/04/14 03:27:38;;;;;;;;;;;;;;;;;;5105915;27;1419;-74
2022/04/14 03:30:04;;;;;;;;;;;;;;;;;;5097420;28;1448;-74
2022/04/14 03:32:29;;;;;;;;;;;;;;;;;;5104322;28;1167;-75
2022/04/14 03:34:55;;;;;;;;;;;;;;;;;;5105051;28;1635;-75
2022/04/14 03:37:21;;;;;;;;;;;;;;;;;;5104763;28;1158;-75
2022/04/14 03:39:48;;;;;;;;;;;;;;;;;;5123826;27;1315;-75
2022/04/14 03:42:13;;;;;;;;;;;;;;;;;;5122032;27;1123;-76
2022/04/14 03:44:39;;;;;;;;;;;;;;;;;;5126852;27;1182;-75
2022/04/14 03:47:04;;;;;;;;;;;;;;;;;;5125940;27;1911;-75
2022/04/14 03:49:29;;;;;;;;;;;;;;;;;;5106804;27;1329;-75
2022/04/14 03:51:55;;;;;;;;;;;;;;;;;;5122266;27;1262;-75
2022/04/14 03:54:21;;;;;;;;;;;;;;;;;;5109381;27;1193;-75
2022/04/14 03:56:48;;;;;;;;;;;;;;;;;;5098968;28;1146;-75
2022/04/14 03:59:13;;;;;;;;;;;;;;;;;;5112579;27;1456;-75
2022/04/14 04:01:39;;;;;;;;;;;;;;;;;;5110159;27;1089;-75
2022/04/14 04:04:04;;;;;;;;;;;;;;;;;;5122306;27;1128;-73
2022/04/14 04:06:29;;;;;;;;;;;;;;;;;;5123576;27;1886;-73
2022/04/14 04:08:55;;;;;;;;;;;;;;;;;;5097656;27;1300;-74
2022/04/14 04:11:20;;;;;;;;;;;;;;;;;;5119653;27;1277;-73
2022/04/14 04:13:46;;;;;;;;;;;;;;;;;;5107999;27;1319;-74
2022/04/14 04:16:12;;;;;;;;;;;;;;;;;;5098054;28;1356;-76
2022/04/14 04:18:37;;;;;;;;;;;;;;;;;;5087093;28;1662;-74
2022/04/14 04:21:02;;;;;;;;;;;;;;;;;;5085133;28;1167;-75
2022/04/14 04:23:28;;;;;;;;;;;;;;;;;;5102814;28;1283;-75
2022/04/14 04:25:53;;;;;;;;;;;;;;;;;;5107500;27;1944;-75
2022/04/14 04:28:18;;;;;;;;;;;;;;;;;;5093412;28;1193;-74
2022/04/14 04:30:43;;;;;;;;;;;;;;;;;;5104254;27;1325;-75
2022/04/14 04:33:09;;;;;;;;;;;;;;;;;;5102807;27;1436;-75
2022/04/14 04:35:34;;;;;;;;;;;;;;;;;;5086124;28;1380;-75
2022/04/14 04:37:59;;;;;;;;;;;;;;;;;;5084686;28;1179;-75
2022/04/14 04:40:26;;;;;;;;;;;;;;;;;;5102085;28;1218;-75
2022/04/14 04:42:52;;;;;;;;;;;;;;;;;;5081988;28;1220;-75
2022/04/14 04:45:17;;;;;;;;;;;;;;;;;;5104705;28;1902;-75
2022/04/14 04:47:43;;;;;;;;;;;;;;;;;;5102299;28;1171;-74
2022/04/14 04:50:08;;;;;;;;;;;;;;;;;;5104645;28;1104;-73
2022/04/14 04:52:34;;;;;;;;;;;;;;;;;;5104300;28;1175;-74
2022/04/14 04:54:59;;;;;;;;;;;;;;;;;;5101510;28;1168;-74
2022/04/14 04:57:25;;;;;;;;;;;;;;;;;;5079917;28;1110;-75
2022/04/14 04:59:51;;;;;;;;;;;;;;;;;;5106341;28;1235;-75
2022/04/14 05:02:16;;;;;;;;;;;;;;;;;;5106730;28;1277;-75
2022/04/14 05:04:42;;;;;;;;;;;;;;;;;;5111181;27;1155;-74
2022/04/14 05:07:07;;;;;;;;;;;;;;;;;;5113147;28;1890;-74
2022/04/14 05:09:33;;;;;;;;;;;;;;;;;;5119251;27;1223;-75
2022/04/14 05:15:22;;;;;;;;;;;;;;;;;;5129363;27;1125;-76
2022/04/14 05:17:47;;;;;;;;;;;;;;;;;;5129628;27;1151;-76
2022/04/14 05:20:12;;;;;;;;;;;;;;;;;;5108590;27;1375;-76
2022/04/14 05:22:38;;;;;;;;;;;;;;;;;;5109048;27;1080;-75
2022/04/14 05:25:03;;;;;;;;;;;;;;;;;;5119519;27;1951;-74
2022/04/14 05:27:28;;;;;;;;;;;;;;;;;;5107184;27;1199;-75
2022/04/14 05:29:55;;;;;;;;;;;;;;;;;;5128371;27;1179;-76
2022/04/14 05:32:21;;;;;;;;;;;;;;;;;;5128173;27;1339;-74
2022/04/14 05:34:46;;;;;;;;;;;;;;;;;;5112436;27;1312;-76
2022/04/14 05:37:12;;;;;;;;;;;;;;;;;;5127588;27;1218;-74
2022/04/14 05:39:37;;;;;;;;;;;;;;;;;;5128544;27;1420;-76
2022/04/14 05:42:02;;;;;;;;;;;;;;;;;;5122098;27;1194;-75
2022/04/14 05:44:27;;;;;;;;;;;;;;;;;;5125362;27;1173;-75
2022/04/14 05:46:55;;;;;;;;;;;;;;;;;;5127243;27;1978;-75
2022/04/14 05:49:20;;;;;;;;;;;;;;;;;;5126015;27;1220;-75
2022/04/14 05:51:46;;;;;;;;;;;;;;;;;;5124923;27;1162;-74
2022/04/14 05:54:11;;;;;;;;;;;;;;;;;;5108111;27;1209;-74
2022/04/14 05:56:36;;;;;;;;;;;;;;;;;;5119157;27;1170;-75
2022/04/14 05:59:02;;;;;;;;;;;;;;;;;;5105579;27;1449;-73
2022/04/14 06:01:27;;;;;;;;;;;;;;;;;;5117058;27;1199;-73
2022/04/14 06:03:52;;;;;;;;;;;;;;;;;;5114605;27;1140;-74
2022/04/14 06:06:18;;;;;;;;;;;;;;;;;;5103377;28;1913;-74
2022/04/14 06:08:43;;;;;;;;;;;;;;;;;;5104632;28;1319;-75
2022/04/14 06:11:09;;;;;;;;;;;;;;;;;;5092108;27;1230;-76
2022/04/14 06:13:34;;;;;;;;;;;;;;;;;;5123723;27;1298;-75
2022/04/14 06:16:00;;;;;;;;;;;;;;;;;;5107239;27;1287;-75
2022/04/14 06:18:25;;;;;;;;;;;;;;;;;;5121156;27;1326;-75
2022/04/14 06:20:52;;;;;;;;;;;;;;;;;;5088399;28;1281;-75
2022/04/14 06:23:17;;;;;;;;;;;;;;;;;;5122609;27;1097;-75
2022/04/14 06:25:49;;;;;;;;;;;;;;;;;;5113020;27;2038;-76
2022/04/14 06:28:15;;;;;;;;;;;;;;;;;;5098284;27;1211;-76
2022/04/14 06:30:41;;;;;;;;;;;;;;;;;;5129124;27;1076;-76
2022/04/14 06:33:06;;;;;;;;;;;;;;;;;;5111953;27;1272;-75
2022/04/14 06:35:33;;;;;;;;;;;;;;;;;;5113737;27;1299;-76
2022/04/14 06:38:07;;;;;;;;;;;;;;;;;;5105102;27;1052;-76
2022/04/14 06:40:36;;;;;;;;;;;;;;;;;;5111948;27;2030;-76
2022/04/14 06:43:02;;;;;;;;;;;;;;;;;;5108831;27;1151;-76
2022/04/14 06:45:33;;;;;;;;;;;;;;;;;;5106392;28;1930;-75
2022/04/14 06:48:07;;;;;;;;;;;;;;;;;;5122812;27;1204;-76
2022/04/14 06:50:32;;;;;;;;;;;;;;;;;;5097343;27;1236;-74
2022/04/14 06:53:04;;;;;;;;;;;;;;;;;;5124117;27;1151;-75
2022/04/14 06:55:42;;;;;;;;;;;;;;;;;;5123209;27;1212;-75
2022/04/14 06:58:08;;;;;;;;;;;;;;;;;;5122808;27;1271;-74
2022/04/14 07:00:33;;;;;;;;;;;;;;;;;;5088703;28;1159;-74
2022/04/14 07:03:04;;;;;;;;;;;;;;;;;;5106318;28;1345;-75
2022/04/14 07:05:29;;;;;;;;;;;;;;;;;;5106270;27;1985;-75
2022/04/14 07:07:55;;;;;;;;;;;;;;;;;;5108106;27;1147;-74
2022/04/14 07:10:22;;;;;;;;;;;;;;;;;;5109276;27;1290;-76
2022/04/14 07:12:47;;;;;;;;;;;;;;;;;;5103683;27;1354;-75
2022/04/14 07:15:13;;;;;;;;;;;;;;;;;;5107020;27;1159;-75
2022/04/14 07:17:38;;;;;;;;;;;;;;;;;;5104839;28;1366;-75
2022/04/14 07:20:09;;;;;;;;;;;;;;;;;;5126415;27;1340;-75
2022/04/14 07:22:42;;;;;;;;;;;;;;;;;;5123942;27;1388;-75
2022/04/14 07:25:07;;;;;;;;;;;;;;;;;;5124857;27;1921;-74
2022/04/14 07:27:32;;;;;;;;;;;;;;;;;;5100080;28;1198;-74
2022/04/14 07:29:59;;;;;;;;;;;;;;;;;;5107518;27;1261;-75
2022/04/14 07:32:33;;;;;;;;;;;;;;;;;;5102256;28;1413;-74
2022/04/14 07:34:58;;;;;;;;;;;;;;;;;;5104092;28;1293;-74
2022/04/14 07:37:23;;;;;;;;;;;;;;;;;;5100347;28;1167;-75
2022/04/14 07:39:49;;;;;;;;;;;;;;;;;;5107244;28;1171;-75
2022/04/14 07:42:24;;;;;;;;;;;;;;;;;;5080187;28;1317;-75
2022/04/14 07:44:49;;;;;;;;;;;;;;;;;;5104892;28;1251;-74
2022/04/14 07:47:18;;;;;;;;;;;;;;;;;;5102802;27;1927;-75
2022/04/14 07:49:44;;;;;;;;;;;;;;;;;;5105989;28;1145;-74
2022/04/14 07:52:09;;;;;;;;;;;;;;;;;;5101876;28;1367;-75
2022/04/14 07:54:35;;;;;;;;;;;;;;;;;;5086912;28;1287;-75
2022/04/14 07:57:01;;;;;;;;;;;;;;;;;;5082032;28;1229;-75
2022/04/14 07:59:26;;;;;;;;;;;;;;;;;;5099701;28;1228;-75
2022/04/14 08:01:51;;;;;;;;;;;;;;;;;;5084016;28;1367;-75
2022/04/14 08:04:16;;;;;;;;;;;;;;;;;;5085983;28;1471;-75
2022/04/14 08:06:42;;;;;;;;;;;;;;;;;;5102701;28;1962;-75
2022/04/14 08:09:11;;;;;;;;;;;;;;;;;;5105415;27;1156;-75
2022/04/14 08:11:36;;;;;;;;;;;;;;;;;;5099272;28;1264;-75
2022/04/14 08:14:02;;;;;;;;;;;;;;;;;;5085077;27;1373;-75
2022/04/14 08:16:27;;;;;;;;;;;;;;;;;;5122113;27;1198;-74
2022/04/14 08:18:52;;;;;;;;;;;;;;;;;;5123041;27;1161;-75
2022/04/14 08:21:19;;;;;;;;;;;;;;;;;;5103203;27;1049;-74
2022/04/14 08:23:44;;;;;;;;;;;;;;;;;;5118596;27;1191;-76
2022/04/14 08:26:12;;;;;;;;;;;;;;;;;;5117698;27;1889;-74
2022/04/14 08:28:41;;;;;;;;;;;;;;;;;;5105506;27;1294;-75
2022/04/14 08:31:13;;;;;;;;;;;;;;;;;;5103438;27;1385;-75
2022/04/14 08:33:38;;;;;;;;;;;;;;;;;;5104286;28;1294;-75
2022/04/14 08:36:05;;;;;;;;;;;;;;;;;;5121883;27;1301;-74
2022/04/14 08:38:30;;;;;;;;;;;;;;;;;;5122128;27;1139;-75
2022/04/14 08:41:00;;;;;;;;;;;;;;;;;;5106463;27;1147;-75
2022/04/14 08:43:33;;;;;;;;;;;;;;;;;;5109417;28;1116;-77
2022/04/14 08:45:59;;;;;;;;;;;;;;;;;;5107090;28;1914;-75
2022/04/14 08:48:24;;;;;;;;;;;;;;;;;;5116374;27;1174;-75
2022/04/14 08:50:50;;;;;;;;;;;;;;;;;;5107973;28;1223;-75
2022/04/14 08:53:22;;;;;;;;;;;;;;;;;;5105356;28;1199;-75
2022/04/14 08:55:48;;;;;;;;;;;;;;;;;;5101826;28;1285;-76
2022/04/14 08:58:16;;;;;;;;;;;;;;;;;;5082234;28;1293;-75
2022/04/14 09:00:41;;;;;;;;;;;;;;;;;;5103442;28;1225;-75
2022/04/14 09:03:07;;;;;;;;;;;;;;;;;;5104856;28;1245;-75
2022/04/14 09:05:33;;;;;;;;;;;;;;;;;;5084889;28;2034;-74
2022/04/14 09:07:59;;;;;;;;;;;;;;;;;;5085740;28;1290;-75
2022/04/14 09:10:38;;;;;;;;;;;;;;;;;;5100748;28;1672;-73
2022/04/14 09:13:03;;;;;;;;;;;;;;;;;;5120187;28;1177;-74
2022/04/14 09:15:29;;;;;;;;;;;;;;;;;;5120757;28;1159;-74
2022/04/14 09:17:55;;;;;;;;;;;;;;;;;;5121856;28;1219;-74
2022/04/14 09:20:37;;;;;;;;;;;;;;;;;;5112216;28;1100;-74
2022/04/14 09:23:20;;;;;;;;;;;;;;;;;;5117250;28;1325;-74
2022/04/14 09:26:06;;;;;;;;;;;;;;;;;;5088069;28;1914;-75
2022/04/14 09:28:32;;;;;;;;;;;;;;;;;;5119563;28;1149;-75
2022/04/14 09:31:02;;;;;;;;;;;;;;;;;;5122581;28;1183;-75
2022/04/14 09:33:28;;;;;;;;;;;;;;;;;;5121702;28;1299;-75
2022/04/14 09:36:10;;;;;;;;;;;;;;;;;;5124571;27;1131;-74
2022/04/14 09:38:49;;;;;;;;;;;;;;;;;;5121347;28;1291;-75
2022/04/14 09:41:33;;;;;;;;;;;;;;;;;;5118893;28;1120;-75
2022/04/14 09:44:03;;;;;;;;;;;;;;;;;;5121594;28;1237;-75
2022/04/14 09:46:29;;;;;;;;;;;;;;;;;;5122325;27;1985;-75
2022/04/14 09:49:20;;;;;;;;;;;;;;;;;;5109974;27;1416;-75
2022/04/14 09:51:47;;;;;;;;;;;;;;;;;;5119031;27;1215;-75
2022/04/14 09:54:17;;;;;;;;;;;;;;;;;;5126809;27;1208;-75
2022/04/14 09:56:49;;;;;;;;;;;;;;;;;;5107519;27;1248;-75
2022/04/14 09:59:16;;;;;;;;;;;;;;;;;;5125202;27;1140;-74
2022/04/14 10:01:42;;;;;;;;;;;;;;;;;;5126097;27;1118;-73
2022/04/14 10:04:26;;;;;;;;;;;;;;;;;;5127943;27;1453;-74
2022/04/14 10:07:21;;;;;;;;;;;;;;;;;;5125072;27;1889;-75
2022/04/14 10:09:48;;;;;;;;;;;;;;;;;;5104530;27;1492;-75
2022/04/14 10:12:40;;;;;;;;;;;;;;;;;;5117854;27;1214;-76
2022/04/14 10:15:07;;;;;;;;;;;;;;;;;;5123639;27;1245;-76
2022/04/14 10:17:33;;;;;;;;;;;;;;;;;;5105585;28;1056;-75
2022/04/14 10:19:59;;;;;;;;;;;;;;;;;;5121091;27;1243;-74
2022/04/14 10:22:28;;;;;;;;;;;;;;;;;;5093225;27;1322;-75
2022/04/14 10:24:53;;;;;;;;;;;;;;;;;;5126562;27;1337;-75
2022/04/14 10:27:25;;;;;;;;;;;;;;;;;;5123901;27;1885;-75
2022/04/14 10:29:50;;;;;;;;;;;;;;;;;;5113286;27;1292;-75
2022/04/14 10:32:20;;;;;;;;;;;;;;;;;;5126915;27;1344;-75
2022/04/14 10:34:46;;;;;;;;;;;;;;;;;;5109570;27;1314;-76
2022/04/14 10:37:47;;;;;;;;;;;;;;;;;;5110077;27;1239;-77
2022/04/14 10:40:14;;;;;;;;;;;;;;;;;;5064920;28;1452;-76
2022/04/14 10:42:45;;;;;;;;;;;;;;;;;;5081801;28;1248;-77
2022/04/14 10:45:15;;;;;;;;;;;;;;;;;;5123889;27;1974;-77
2022/04/14 10:47:43;;;;;;;;;;;;;;;;;;5115319;27;1305;-76
2022/04/14 10:50:30;;;;;;;;;;;;;;;;;;5120237;27;1309;-77
2022/04/14 10:53:09;;;;;;;;;;;;;;;;;;5125928;27;1290;-76
2022/04/14 10:55:36;;;;;;;;;;;;;;;;;;5118065;27;1265;-75
2022/04/14 10:58:01;;;;;;;;;;;;;;;;;;5100394;27;1286;-76
2022/04/14 11:00:35;;;;;;;;;;;;;;;;;;5102857;28;1322;-76
2022/04/14 11:03:00;;;;;;;;;;;;;;;;;;5104687;27;1443;-75
2022/04/14 11:05:46;;;;;;;;;;;;;;;;;;5126246;27;1886;-75
2022/04/14 11:08:26;;;;;;;;;;;;;;;;;;5123377;27;1193;-75
2022/04/14 11:10:55;;;;;;;;;;;;;;;;;;5127790;27;1228;-75
2022/04/14 11:13:24;;;;;;;;;;;;;;;;;;5122126;27;1280;-75
2022/04/14 11:15:53;;;;;;;;;;;;;;;;;;5109120;27;1438;-76
2022/04/14 11:18:19;;;;;;;;;;;;;;;;;;5127859;27;1055;-77
2022/04/14 11:20:51;;;;;;;;;;;;;;;;;;5122665;27;1205;-77
2022/04/14 11:23:35;;;;;;;;;;;;;;;;;;5126401;27;1218;-77
2022/04/14 11:26:04;;;;;;;;;;;;;;;;;;5121454;27;1886;-77
2022/04/14 11:28:31;;;;;;;;;;;;;;;;;;5118884;27;1197;-76
2022/04/14 11:31:15;;;;;;;;;;;;;;;;;;5124158;27;1336;-76
2022/04/14 11:33:44;;;;;;;;;;;;;;;;;;5123638;27;1232;-76
2022/04/14 11:36:10;;;;;;;;;;;;;;;;;;5117933;27;1186;-76
2022/04/14 11:39:00;;;;;;;;;;;;;;;;;;5112551;27;1158;-77
2022/04/14 11:41:29;;;;;;;;;;;;;;;;;;5120357;27;1118;-77
2022/04/14 11:43:57;;;;;;;;;;;;;;;;;;5124595;27;1131;-82
2022/04/14 11:46:24;;;;;;;;;;;;;;;;;;5124327;27;2012;-78
2022/04/14 11:48:49;;;;;;;;;;;;;;;;;;5124127;27;1314;-79
2022/04/14 11:51:18;;;;;;;;;;;;;;;;;;5108610;27;1272;-78
2022/04/14 11:53:43;;;;;;;;;;;;;;;;;;5123204;27;1147;-78
2022/04/14 11:56:18;;;;;;;;;;;;;;;;;;5129465;27;1127;-78
2022/04/14 11:58:43;;;;;;;;;;;;;;;;;;5123294;27;1690;-81
2022/04/14 12:01:09;;;;;;;;;;;;;;;;;;5125075;27;1356;-79
2022/04/14 12:03:34;;;;;;;;;;;;;;;;;;5107275;27;1259;-77
2022/04/14 12:06:06;;;;;;;;;;;;;;;;;;5126078;27;1882;-78
2022/04/14 12:08:32;;;;;;;;;;;;;;;;;;5115837;27;1181;-77
2022/04/14 12:11:01;;;;;;;;;;;;;;;;;;5104072;28;1163;-77
2022/04/14 12:13:31;;;;;;;;;;;;;;;;;;5102957;28;1182;-77
2022/04/14 12:16:00;;;;;;;;;;;;;;;;;;5120671;27;1199;-78
2022/04/14 12:18:35;;;;;;;;;;;;;;;;;;5103333;28;1256;-78
2022/04/14 12:21:01;;;;;;;;;;;;;;;;;;5105907;28;1258;-78
2022/04/14 12:23:35;;;;;;;;;;;;;;;;;;5107937;28;1219;-77
2022/04/14 12:26:00;;;;;;;;;;;;;;;;;;5121564;27;1882;-78
2022/04/14 12:28:30;;;;;;;;;;;;;;;;;;5123504;27;1203;-79
2022/04/14 12:30:55;;;;;;;;;;;;;;;;;;5126361;27;1245;-78
2022/04/14 12:33:25;;;;;;;;;;;;;;;;;;5127900;27;1496;-78
2022/04/14 12:36:04;;;;;;;;;;;;;;;;;;5125901;27;1161;-78
2022/04/14 12:38:47;;;;;;;;;;;;;;;;;;5103315;28;1116;-77
2022/04/14 12:41:17;;;;;;;;;;;;;;;;;;5109225;27;1061;-82
2022/04/14 12:43:45;;;;;;;;;;;;;;;;;;5104310;28;1269;-80
2022/04/14 12:46:26;;;;;;;;;;;;;;;;;;5122069;28;1914;-81
2022/04/14 12:48:59;;;;;;;;;;;;;;;;;;5121796;28;1241;-80
2022/04/14 12:51:32;;;;;;;;;;;;;;;;;;5103255;28;1163;-79
2022/04/14 12:53:59;;;;;;;;;;;;;;;;;;5113275;28;1208;-80
2022/04/14 12:56:25;;;;;;;;;;;;;;;;;;5102561;28;1127;-79
2022/04/14 12:59:26;;;;;;;;;;;;;;;;;;5103054;28;1163;-78
2022/04/14 13:01:55;;;;;;;;;;;;;;;;;;5041987;28;1171;-79
2022/04/14 13:04:32;;;;;;;;;;;;;;;;;;5113795;28;1398;-80
2022/04/14 13:07:02;;;;;;;;;;;;;;;;;;5120506;28;1889;-78
2022/04/14 13:09:28;;;;;;;;;;;;;;;;;;5118768;28;1344;-78
2022/04/14 13:11:53;;;;;;;;;;;;;;;;;;5099001;28;1132;-78
2022/04/14 13:14:19;;;;;;;;;;;;;;;;;;5103018;28;1188;-78
2022/04/14 13:16:45;;;;;;;;;;;;;;;;;;5106456;28;1281;-80
2022/04/14 13:19:11;;;;;;;;;;;;;;;;;;5125537;27;1214;-77
2022/04/14 13:21:40;;;;;;;;;;;;;;;;;;5104199;27;1342;-80
2022/04/14 13:24:05;;;;;;;;;;;;;;;;;;5107815;28;1431;-77
2022/04/14 13:26:37;;;;;;;;;;;;;;;;;;5122819;27;1890;-79
2022/04/14 13:29:03;;;;;;;;;;;;;;;;;;5129176;27;1294;-77
2022/04/14 13:31:28;;;;;;;;;;;;;;;;;;5109164;27;1272;-77
2022/04/14 13:33:53;;;;;;;;;;;;;;;;;;5086795;28;1306;-77
2022/04/14 13:36:19;;;;;;;;;;;;;;;;;;5103176;27;1188;-78
2022/04/14 13:38:44;;;;;;;;;;;;;;;;;;5126261;27;1154;-76
2022/04/14 13:41:11;;;;;;;;;;;;;;;;;;5112212;27;1209;-78
2022/04/14 13:43:41;;;;;;;;;;;;;;;;;;5117828;27;1131;-77
2022/04/14 13:46:06;;;;;;;;;;;;;;;;;;5110074;27;1977;-82
2022/04/14 13:48:32;;;;;;;;;;;;;;;;;;5128310;27;1230;-85
2022/04/14 13:50:58;;;;;;;;;;;;;;;;;;5113041;27;1248;-84
2022/04/14 13:53:23;;;;;;;;;;;;;;;;;;5128215;27;1284;-82
2022/04/14 13:55:49;;;;;;;;;;;;;;;;;;5116090;27;1012;-79
2022/04/14 13:58:15;;;;;;;;;;;;;;;;;;5119348;27;1143;-79
2022/04/14 14:00:41;;;;;;;;;;;;;;;;;;5125723;27;1147;-78
2022/04/14 14:03:07;;;;;;;;;;;;;;;;;;5118695;27;1257;-79
2022/04/14 14:05:33;;;;;;;;;;;;;;;;;;5110487;27;1902;-80
2022/04/14 14:07:58;;;;;;;;;;;;;;;;;;5107650;28;1072;-79
2022/04/14 14:10:23;;;;;;;;;;;;;;;;;;5114713;27;1211;-78
2022/04/14 14:12:49;;;;;;;;;;;;;;;;;;5101994;27;1309;-79
2022/04/14 14:15:14;;;;;;;;;;;;;;;;;;5110920;27;1245;-77
2022/04/14 14:17:43;;;;;;;;;;;;;;;;;;5108015;27;1217;-79
2022/04/14 14:20:09;;;;;;;;;;;;;;;;;;5110925;27;1353;-80
2022/04/14 14:22:35;;;;;;;;;;;;;;;;;;5125884;27;1178;-80
2022/04/14 14:25:00;;;;;;;;;;;;;;;;;;5123366;27;1320;-81
2022/04/14 14:27:25;;;;;;;;;;;;;;;;;;5122693;27;1893;-80
2022/04/14 14:29:51;;;;;;;;;;;;;;;;;;5124779;27;1290;-78
2022/04/14 14:32:16;;;;;;;;;;;;;;;;;;5125872;27;1352;-80
2022/04/14 14:34:45;;;;;;;;;;;;;;;;;;5104512;27;1258;-79
2022/04/14 14:37:10;;;;;;;;;;;;;;;;;;5123937;27;1415;-81
2022/04/14 14:39:36;;;;;;;;;;;;;;;;;;5125356;27;1198;-81
2022/04/14 14:42:03;;;;;;;;;;;;;;;;;;5112366;27;1305;-80
2022/04/14 14:44:28;;;;;;;;;;;;;;;;;;5087528;28;1202;-79
2022/04/14 14:46:57;;;;;;;;;;;;;;;;;;5103986;28;1963;-78
2022/04/14 14:49:26;;;;;;;;;;;;;;;;;;5107513;28;1108;-79
2022/04/14 14:51:51;;;;;;;;;;;;;;;;;;5102574;28;1183;-78
2022/04/14 14:54:16;;;;;;;;;;;;;;;;;;5110581;27;1215;-79
2022/04/14 14:56:45;;;;;;;;;;;;;;;;;;5119570;27;1198;-78
2022/04/14 14:59:13;;;;;;;;;;;;;;;;;;5121114;27;1275;-79
2022/04/14 15:01:46;;;;;;;;;;;;;;;;;;5123097;27;1154;-79
2022/04/14 15:04:11;;;;;;;;;;;;;;;;;;5126425;27;1252;-79
2022/04/14 15:06:44;;;;;;;;;;;;;;;;;;5115764;27;1898;-79
2022/04/14 15:09:10;;;;;;;;;;;;;;;;;;5124836;27;1174;-79
2022/04/14 15:11:37;;;;;;;;;;;;;;;;;;5118590;27;1300;-80
2022/04/14 15:14:05;;;;;;;;;;;;;;;;;;5112108;27;1191;-79
2022/04/14 15:16:31;;;;;;;;;;;;;;;;;;5115012;27;1291;-74
2022/04/14 15:18:56;;;;;;;;;;;;;;;;;;5099129;27;1341;-74
2022/04/14 15:21:22;;;;;;;;;;;;;;;;;;5098102;28;1158;-74
2022/04/14 15:23:48;;;;;;;;;;;;;;;;;;5108817;27;1202;-75
2022/04/14 15:26:13;;;;;;;;;;;;;;;;;;5097134;28;1882;-73
2022/04/14 15:28:51;;;;;;;;;;;;;;;;;;5092799;28;1140;-74
2022/04/14 15:31:17;;;;;;;;;;;;;;;;;;5100290;28;1218;-73
2022/04/14 15:33:46;;;;;;;;;;;;;;;;;;5100032;28;1163;-73
2022/04/14 15:36:15;;;;;;;;;;;;;;;;;;5082336;27;1244;-73
2022/04/14 15:38:40;;;;;;;;;;;;;;;;;;5100698;28;1143;-72
2022/04/14 15:41:06;;;;;;;;;;;;;;;;;;5092576;27;1163;-73
2022/04/14 15:43:31;;;;;;;;;;;;;;;;;;5111572;27;1147;-71
2022/04/14 15:45:57;;;;;;;;;;;;;;;;;;5098476;28;1971;-72
2022/04/14 15:48:22;;;;;;;;;;;;;;;;;;5099545;28;1150;-72
2022/04/14 15:50:50;;;;;;;;;;;;;;;;;;5099539;28;1147;-74
2022/04/14 15:53:16;;;;;;;;;;;;;;;;;;5097740;28;1226;-73
2022/04/14 15:55:52;;;;;;;;;;;;;;;;;;5079991;28;1254;-72
2022/04/14 15:58:18;;;;;;;;;;;;;;;;;;5115759;27;1198;-71
2022/04/14 16:00:53;;;;;;;;;;;;;;;;;;5115430;27;1119;-73
2022/04/14 16:03:18;;;;;;;;;;;;;;;;;;5102377;27;1216;-73
2022/04/14 16:05:43;;;;;;;;;;;;;;;;;;5097614;27;1945;-73
2022/04/14 16:08:09;;;;;;;;;;;;;;;;;;5097845;28;1202;-73
2022/04/14 16:13:20;;;;;;;;;;;;;;;;;;5097345;28;1024;-72
2022/04/14 16:15:57;;;;;;;;;;;;;;;;;;5111049;27;1345;-72
2022/04/14 16:18:22;;;;;;;;;;;;;;;;;;5113884;27;1330;-72
2022/04/14 16:20:54;;;;;;;;;;;;;;;;;;5094610;27;1164;-72
2022/04/14 16:23:20;;;;;;;;;;;;;;;;;;5096087;27;1245;-73
2022/04/14 16:25:52;;;;;;;;;;;;;;;;;;5115679;27;1952;-73
2022/04/14 16:28:18;;;;;;;;;;;;;;;;;;5110260;27;1171;-72
2022/04/14 16:30:44;;;;;;;;;;;;;;;;;;5095063;28;1209;-72
2022/04/14 16:33:11;;;;;;;;;;;;;;;;;;5096078;27;1369;-73
2022/04/14 16:35:45;;;;;;;;;;;;;;;;;;5102539;27;1353;-73
2022/04/14 16:38:10;;;;;;;;;;;;;;;;;;5110929;27;1079;-72
2022/04/14 16:40:36;;;;;;;;;;;;;;;;;;5122619;27;1124;-72
2022/04/14 16:43:02;;;;;;;;;;;;;;;;;;5098565;28;1342;-72
2022/04/14 16:45:27;;;;;;;;;;;;;;;;;;5103462;28;1919;-71
2022/04/14 16:47:56;;;;;;;;;;;;;;;;;;5103563;28;1178;-71
2022/04/14 16:50:21;;;;;;;;;;;;;;;;;;5122918;28;1206;-72
2022/04/14 16:52:47;;;;;;;;;;;;;;;;;;5119828;27;1099;-73
2022/04/14 16:55:13;;;;;;;;;;;;;;;;;;5102915;28;1139;-72
2022/04/14 16:57:38;;;;;;;;;;;;;;;;;;5120878;27;1112;-72
2022/04/14 17:00:04;;;;;;;;;;;;;;;;;;5126263;27;1233;-74
2022/04/14 17:02:30;;;;;;;;;;;;;;;;;;5127729;27;1174;-72
2022/04/14 17:04:58;;;;;;;;;;;;;;;;;;5128163;27;1190;-74
2022/04/14 17:07:24;;;;;;;;;;;;;;;;;;5105175;28;1951;-73
2022/04/14 17:09:49;;;;;;;;;;;;;;;;;;5107753;28;1186;-74
2022/04/14 17:12:14;;;;;;;;;;;;;;;;;;5099671;28;1306;-72